sensor_id;sensor_type;location;lat;lon;timestamp;pressure;altitude;pressure_sealevel;temperature;humidity
3434;BME280;1730;41.932;25.548;2023-11-19T00:01:28;98428.78;;;6.22;100.00
3434;BME280;1730;41.932;25.548;2023-11-19T00:03:53;98591.91;;;7.15;100.00
3434;BME280;1730;41.932;25.548;2023-11-19T00:06:19;98602.19;;;7.19;100.00
3434;BME280;1730;41.932;25.548;2023-11-19T00:08:44;98611.66;;;7.14;100.00
3434;BME280;1730;41.932;25.548;2023-11-19T00:11:10;98506.69;;;6.46;100.00
3434;BME280;1730;41.932;25.548;2023-11-19T00:13:36;98591.69;;;6.99;100.00
3434;BME280;1730;41.932;25.548;2023-11-19T00:16:02;98620.81;;;7.11;100.00
3434;BME280;1730;41.932;25.548;2023-11-19T00:18:29;98623.50;;;7.11;100.00
3434;BME280;1730;41.932;25.548;2023-11-19T00:20:55;98513.47;;;6.41;100.00
3434;BME280;1730;41.932;25.548;2023-11-19T00:23:21;98630.34;;;7.06;100.00
3434;BME280;1730;41.932;25.548;2023-11-19T00:25:46;98553.34;;;6.44;100.00
3434;BME280;1730;41.932;25.548;2023-11-19T00:28:13;98395.50;;;4.94;100.00
3434;BME280;1730;41.932;25.548;2023-11-19T00:30:38;98668.13;;;7.03;100.00
3434;BME280;1730;41.932;25.548;2023-11-19T00:33:06;98467.81;;;6.15;100.00
3434;BME280;1730;41.932;25.548;2023-11-19T00:35:32;98629.28;;;7.16;100.00
3434;BME280;1730;41.932;25.548;2023-11-19T00:37:58;98565.81;;;6.62;100.00
3434;BME280;1730;41.932;25.548;2023-11-19T00:40:24;98657.13;;;7.06;100.00
3434;BME280;1730;41.932;25.548;2023-11-19T00:42:49;98650.75;;;7.07;100.00
3434;BME280;1730;41.932;25.548;2023-11-19T00:45:15;98658.13;;;7.05;100.00
3434;BME280;1730;41.932;25.548;2023-11-19T00:47:41;98654.97;;;6.82;100.00
3434;BME280;1730;41.932;25.548;2023-11-19T00:50:07;98681.72;;;6.92;100.00
3434;BME280;1730;41.932;25.548;2023-11-19T00:52:37;98683.69;;;6.90;100.00
3434;BME280;1730;41.932;25.548;2023-11-19T00:55:04;98525.19;;;5.93;100.00
3434;BME280;1730;41.932;25.548;2023-11-19T00:57:30;98402.19;;;5.27;100.00
3434;BME280;1730;41.932;25.548;2023-11-19T01:00:01;98695.28;;;6.90;100.00
3434;BME280;1730;41.932;25.548;2023-11-19T01:02:34;98706.72;;;6.83;100.00
3434;BME280;1730;41.932;25.548;2023-11-19T01:05:00;98701.78;;;6.88;100.00
3434;BME280;1730;41.932;25.548;2023-11-19T01:07:25;98460.28;;;5.35;100.00
3434;BME280;1730;41.932;25.548;2023-11-19T01:09:52;98718.25;;;6.93;100.00
3434;BME280;1730;41.932;25.548;2023-11-19T01:12:17;98718.00;;;6.86;100.00
3434;BME280;1730;41.932;25.548;2023-11-19T01:14:43;98704.47;;;6.88;100.00
3434;BME280;1730;41.932;25.548;2023-11-19T01:17:08;98664.94;;;6.53;100.00
3434;BME280;1730;41.932;25.548;2023-11-19T01:19:34;98670.22;;;6.72;100.00
3434;BME280;1730;41.932;25.548;2023-11-19T01:21:59;98252.78;;;4.22;100.00
3434;BME280;1730;41.932;25.548;2023-11-19T01:24:26;98721.63;;;6.95;100.00
3434;BME280;1730;41.932;25.548;2023-11-19T01:26:54;98704.25;;;6.99;100.00
3434;BME280;1730;41.932;25.548;2023-11-19T01:29:19;98701.59;;;6.99;100.00
3434;BME280;1730;41.932;25.548;2023-11-19T01:31:46;98674.03;;;6.79;100.00
3434;BME280;1730;41.932;25.548;2023-11-19T01:34:14;98716.25;;;7.04;100.00
3434;BME280;1730;41.932;25.548;2023-11-19T01:36:39;98713.87;;;6.92;100.00
3434;BME280;1730;41.932;25.548;2023-11-19T01:39:06;98564.62;;;6.01;100.00
3434;BME280;1730;41.932;25.548;2023-11-19T01:41:35;98709.78;;;6.97;100.00
3434;BME280;1730;41.932;25.548;2023-11-19T01:44:02;98658.84;;;6.70;100.00
3434;BME280;1730;41.932;25.548;2023-11-19T01:46:27;98721.50;;;6.96;100.00
3434;BME280;1730;41.932;25.548;2023-11-19T01:48:54;98713.25;;;7.07;100.00
3434;BME280;1730;41.932;25.548;2023-11-19T01:51:21;98700.28;;;7.03;100.00
3434;BME280;1730;41.932;25.548;2023-11-19T01:53:47;98745.59;;;7.06;100.00
3434;BME280;1730;41.932;25.548;2023-11-19T01:56:15;98398.81;;;5.25;100.00
3434;BME280;1730;41.932;25.548;2023-11-19T01:58:43;98697.19;;;6.98;100.00
3434;BME280;1730;41.932;25.548;2023-11-19T02:01:10;98614.31;;;6.59;100.00
3434;BME280;1730;41.932;25.548;2023-11-19T02:03:37;98659.84;;;6.96;100.00
3434;BME280;1730;41.932;25.548;2023-11-19T02:06:03;98688.44;;;7.05;100.00
3434;BME280;1730;41.932;25.548;2023-11-19T02:08:29;98692.97;;;7.05;100.00
3434;BME280;1730;41.932;25.548;2023-11-19T02:10:55;98664.53;;;6.85;100.00
3434;BME280;1730;41.932;25.548;2023-11-19T02:13:26;98691.31;;;6.94;100.00
3434;BME280;1730;41.932;25.548;2023-11-19T02:15:52;98680.94;;;6.72;100.00
3434;BME280;1730;41.932;25.548;2023-11-19T02:18:27;98700.09;;;6.87;100.00
3434;BME280;1730;41.932;25.548;2023-11-19T02:20:59;98708.09;;;6.96;100.00
3434;BME280;1730;41.932;25.548;2023-11-19T02:23:28;98694.53;;;6.98;100.00
3434;BME280;1730;41.932;25.548;2023-11-19T02:26:14;98693.88;;;6.86;100.00
3434;BME280;1730;41.932;25.548;2023-11-19T02:28:43;98720.66;;;6.86;100.00
3434;BME280;1730;41.932;25.548;2023-11-19T02:31:10;98711.50;;;6.89;100.00
3434;BME280;1730;41.932;25.548;2023-11-19T02:33:40;98717.56;;;6.91;100.00
3434;BME280;1730;41.932;25.548;2023-11-19T02:36:06;98727.72;;;6.87;100.00
3434;BME280;1730;41.932;25.548;2023-11-19T02:38:35;98681.87;;;6.53;100.00
3434;BME280;1730;41.932;25.548;2023-11-19T02:41:04;98739.72;;;6.83;100.00
3434;BME280;1730;41.932;25.548;2023-11-19T02:43:31;98721.56;;;6.67;100.00
3434;BME280;1730;41.932;25.548;2023-11-19T02:46:01;98755.09;;;6.81;100.00
3434;BME280;1730;41.932;25.548;2023-11-19T02:48:27;98734.94;;;6.77;100.00
3434;BME280;1730;41.932;25.548;2023-11-19T02:50:53;98726.22;;;6.75;100.00
3434;BME280;1730;41.932;25.548;2023-11-19T02:53:18;98743.69;;;6.79;100.00
3434;BME280;1730;41.932;25.548;2023-11-19T02:55:47;98756.38;;;6.77;100.00
3434;BME280;1730;41.932;25.548;2023-11-19T02:58:16;98682.16;;;6.41;100.00
3434;BME280;1730;41.932;25.548;2023-11-19T03:00:51;98624.31;;;6.01;100.00
3434;BME280;1730;41.932;25.548;2023-11-19T03:03:27;98751.19;;;6.75;100.00
3434;BME280;1730;41.932;25.548;2023-11-19T03:06:04;98567.31;;;5.62;100.00
3434;BME280;1730;41.932;25.548;2023-11-19T03:08:30;98747.34;;;6.78;100.00
3434;BME280;1730;41.932;25.548;2023-11-19T03:10:56;98753.56;;;6.78;100.00
3434;BME280;1730;41.932;25.548;2023-11-19T03:13:21;98598.53;;;5.81;100.00
3434;BME280;1730;41.932;25.548;2023-11-19T03:15:47;98740.84;;;6.80;100.00
3434;BME280;1730;41.932;25.548;2023-11-19T03:18:13;98741.56;;;6.73;100.00
3434;BME280;1730;41.932;25.548;2023-11-19T03:20:38;98621.78;;;6.09;100.00
3434;BME280;1730;41.932;25.548;2023-11-19T03:23:04;98735.78;;;6.77;100.00
3434;BME280;1730;41.932;25.548;2023-11-19T03:25:30;98712.41;;;6.60;100.00
3434;BME280;1730;41.932;25.548;2023-11-19T03:28:00;97855.09;;;1.60;100.00
3434;BME280;1730;41.932;25.548;2023-11-19T03:30:29;98738.91;;;6.73;100.00
3434;BME280;1730;41.932;25.548;2023-11-19T03:32:56;98715.34;;;6.76;100.00
3434;BME280;1730;41.932;25.548;2023-11-19T03:35:22;98726.66;;;6.70;100.00
3434;BME280;1730;41.932;25.548;2023-11-19T03:37:49;98724.66;;;6.63;100.00
3434;BME280;1730;41.932;25.548;2023-11-19T03:40:14;98725.09;;;6.68;100.00
3434;BME280;1730;41.932;25.548;2023-11-19T03:42:40;98775.00;;;6.69;100.00
3434;BME280;1730;41.932;25.548;2023-11-19T03:45:08;98754.28;;;6.71;100.00
3434;BME280;1730;41.932;25.548;2023-11-19T03:47:34;98730.44;;;6.68;100.00
3434;BME280;1730;41.932;25.548;2023-11-19T03:50:01;98728.47;;;6.70;100.00
3434;BME280;1730;41.932;25.548;2023-11-19T03:52:26;98744.69;;;6.68;100.00
3434;BME280;1730;41.932;25.548;2023-11-19T03:54:52;98746.38;;;6.69;100.00
3434;BME280;1730;41.932;25.548;2023-11-19T03:57:20;98746.09;;;6.72;100.00
3434;BME280;1730;41.932;25.548;2023-11-19T03:59:46;98756.25;;;6.69;100.00
3434;BME280;1730;41.932;25.548;2023-11-19T04:02:11;98743.41;;;6.72;100.00
3434;BME280;1730;41.932;25.548;2023-11-19T04:04:37;98732.28;;;6.67;100.00
3434;BME280;1730;41.932;25.548;2023-11-19T04:07:04;98726.78;;;6.69;100.00
3434;BME280;1730;41.932;25.548;2023-11-19T04:09:30;98753.44;;;6.70;100.00
3434;BME280;1730;41.932;25.548;2023-11-19T04:11:59;98743.28;;;6.64;100.00
3434;BME280;1730;41.932;25.548;2023-11-19T04:14:26;98758.50;;;6.54;100.00
3434;BME280;1730;41.932;25.548;2023-11-19T04:16:52;98761.63;;;6.59;100.00
3434;BME280;1730;41.932;25.548;2023-11-19T04:19:19;98772.63;;;6.56;100.00
3434;BME280;1730;41.932;25.548;2023-11-19T04:21:45;98773.16;;;6.69;100.00
3434;BME280;1730;41.932;25.548;2023-11-19T04:24:11;98783.34;;;6.66;100.00
3434;BME280;1730;41.932;25.548;2023-11-19T04:26:44;98792.06;;;6.68;100.00
3434;BME280;1730;41.932;25.548;2023-11-19T04:29:14;98793.19;;;6.75;100.00
3434;BME280;1730;41.932;25.548;2023-11-19T04:31:43;98804.87;;;6.74;100.00
3434;BME280;1730;41.932;25.548;2023-11-19T04:34:10;98812.25;;;6.62;100.00
3434;BME280;1730;41.932;25.548;2023-11-19T04:36:36;98825.75;;;6.61;100.00
3434;BME280;1730;41.932;25.548;2023-11-19T04:39:03;98829.28;;;6.61;100.00
3434;BME280;1730;41.932;25.548;2023-11-19T04:41:50;98835.50;;;6.52;100.00
3434;BME280;1730;41.932;25.548;2023-11-19T04:44:21;98864.09;;;6.52;100.00
3434;BME280;1730;41.932;25.548;2023-11-19T04:46:47;98857.91;;;6.51;100.00
3434;BME280;1730;41.932;25.548;2023-11-19T04:49:13;98789.53;;;6.09;100.00
3434;BME280;1730;41.932;25.548;2023-11-19T04:51:43;98843.66;;;6.41;100.00
3434;BME280;1730;41.932;25.548;2023-11-19T04:54:09;98870.16;;;6.44;100.00
3434;BME280;1730;41.932;25.548;2023-11-19T04:56:38;98873.69;;;6.54;100.00
3434;BME280;1730;41.932;25.548;2023-11-19T04:59:04;98877.34;;;6.44;100.00
3434;BME280;1730;41.932;25.548;2023-11-19T05:01:31;98759.31;;;5.78;100.00
3434;BME280;1730;41.932;25.548;2023-11-19T05:03:57;98762.50;;;5.62;100.00
3434;BME280;1730;41.932;25.548;2023-11-19T05:06:29;98918.81;;;6.49;100.00
3434;BME280;1730;41.932;25.548;2023-11-19T05:08:56;98908.50;;;6.54;100.00
3434;BME280;1730;41.932;25.548;2023-11-19T05:11:22;98898.50;;;6.56;100.00
3434;BME280;1730;41.932;25.548;2023-11-19T05:13:47;98904.00;;;6.55;100.00
3434;BME280;1730;41.932;25.548;2023-11-19T05:16:13;98903.13;;;6.54;100.00
3434;BME280;1730;41.932;25.548;2023-11-19T05:18:42;98883.56;;;6.44;100.00
3434;BME280;1730;41.932;25.548;2023-11-19T05:21:07;98799.38;;;5.99;100.00
3434;BME280;1730;41.932;25.548;2023-11-19T05:23:33;98883.25;;;6.47;100.00
3434;BME280;1730;41.932;25.548;2023-11-19T05:26:02;98892.84;;;6.59;100.00
3434;BME280;1730;41.932;25.548;2023-11-19T05:28:28;98891.03;;;6.69;100.00
3434;BME280;1730;41.932;25.548;2023-11-19T05:30:54;98749.81;;;5.95;100.00
3434;BME280;1730;41.932;25.548;2023-11-19T05:33:19;98881.00;;;6.71;100.00
3434;BME280;1730;41.932;25.548;2023-11-19T05:35:45;98909.81;;;6.89;100.00
3434;BME280;1730;41.932;25.548;2023-11-19T05:38:12;98926.28;;;6.94;100.00
3434;BME280;1730;41.932;25.548;2023-11-19T05:40:37;98911.47;;;6.90;100.00
3434;BME280;1730;41.932;25.548;2023-11-19T05:43:04;98945.62;;;6.88;100.00
3434;BME280;1730;41.932;25.548;2023-11-19T05:45:31;98913.03;;;6.83;100.00
3434;BME280;1730;41.932;25.548;2023-11-19T05:47:57;98916.44;;;6.75;100.00
3434;BME280;1730;41.932;25.548;2023-11-19T05:50:23;98693.38;;;5.38;100.00
3434;BME280;1730;41.932;25.548;2023-11-19T05:52:49;98942.37;;;6.74;100.00
3434;BME280;1730;41.932;25.548;2023-11-19T05:55:15;98680.72;;;5.31;100.00
3434;BME280;1730;41.932;25.548;2023-11-19T05:57:40;98926.00;;;6.68;100.00
3434;BME280;1730;41.932;25.548;2023-11-19T06:00:06;98941.66;;;6.82;100.00
3434;BME280;1730;41.932;25.548;2023-11-19T06:02:34;98987.09;;;6.93;100.00
3434;BME280;1730;41.932;25.548;2023-11-19T06:05:00;98888.63;;;6.57;100.00
3434;BME280;1730;41.932;25.548;2023-11-19T06:07:26;98943.09;;;6.96;100.00
3434;BME280;1730;41.932;25.548;2023-11-19T06:09:52;98935.34;;;6.93;100.00
3434;BME280;1730;41.932;25.548;2023-11-19T06:12:17;98847.34;;;6.40;100.00
3434;BME280;1730;41.932;25.548;2023-11-19T06:14:43;98831.53;;;6.47;100.00
3434;BME280;1730;41.932;25.548;2023-11-19T06:17:08;98925.72;;;7.00;100.00
3434;BME280;1730;41.932;25.548;2023-11-19T06:19:36;98944.06;;;6.95;100.00
3434;BME280;1730;41.932;25.548;2023-11-19T06:22:02;98960.88;;;7.06;100.00
3434;BME280;1730;41.932;25.548;2023-11-19T06:24:28;98961.69;;;7.16;100.00
3434;BME280;1730;41.932;25.548;2023-11-19T06:26:53;98781.78;;;6.15;100.00
3434;BME280;1730;41.932;25.548;2023-11-19T06:29:19;98994.72;;;7.17;100.00
3434;BME280;1730;41.932;25.548;2023-11-19T06:31:45;98654.69;;;5.42;100.00
3434;BME280;1730;41.932;25.548;2023-11-19T06:34:12;98995.00;;;7.14;100.00
3434;BME280;1730;41.932;25.548;2023-11-19T06:36:37;98952.81;;;7.25;100.00
3434;BME280;1730;41.932;25.548;2023-11-19T06:39:03;98947.72;;;7.32;100.00
3434;BME280;1730;41.932;25.548;2023-11-19T06:41:29;98805.19;;;6.42;100.00
3434;BME280;1730;41.932;25.548;2023-11-19T06:43:54;98974.97;;;7.28;100.00
3434;BME280;1730;41.932;25.548;2023-11-19T06:46:20;98831.69;;;6.64;100.00
3434;BME280;1730;41.932;25.548;2023-11-19T06:48:45;98944.03;;;7.43;100.00
3434;BME280;1730;41.932;25.548;2023-11-19T06:51:12;98780.22;;;6.51;100.00
3434;BME280;1730;41.932;25.548;2023-11-19T06:53:38;98955.16;;;7.67;100.00
3434;BME280;1730;41.932;25.548;2023-11-19T06:56:20;98977.50;;;7.95;100.00
3434;BME280;1730;41.932;25.548;2023-11-19T06:58:46;98948.13;;;8.30;100.00
3434;BME280;1730;41.932;25.548;2023-11-19T07:01:13;98943.53;;;8.13;100.00
3434;BME280;1730;41.932;25.548;2023-11-19T07:03:39;98980.94;;;8.24;100.00
3434;BME280;1730;41.932;25.548;2023-11-19T07:06:05;98950.03;;;8.47;100.00
3434;BME280;1730;41.932;25.548;2023-11-19T07:08:30;98950.22;;;8.64;100.00
3434;BME280;1730;41.932;25.548;2023-11-19T07:10:56;98917.41;;;8.42;100.00
3434;BME280;1730;41.932;25.548;2023-11-19T07:13:22;98951.84;;;8.47;100.00
3434;BME280;1730;41.932;25.548;2023-11-19T07:15:47;98863.22;;;7.92;100.00
3434;BME280;1730;41.932;25.548;2023-11-19T07:18:13;98946.16;;;8.23;100.00
3434;BME280;1730;41.932;25.548;2023-11-19T07:20:39;98971.78;;;8.17;100.00
3434;BME280;1730;41.932;25.548;2023-11-19T07:23:05;98888.47;;;7.99;100.00
3434;BME280;1730;41.932;25.548;2023-11-19T07:25:31;98941.47;;;8.34;100.00
3434;BME280;1730;41.932;25.548;2023-11-19T07:27:57;98933.63;;;8.50;100.00
3434;BME280;1730;41.932;25.548;2023-11-19T07:30:22;98952.00;;;8.18;100.00
3434;BME280;1730;41.932;25.548;2023-11-19T07:32:48;98765.63;;;7.39;100.00
3434;BME280;1730;41.932;25.548;2023-11-19T07:35:14;98757.25;;;7.42;100.00
3434;BME280;1730;41.932;25.548;2023-11-19T07:37:41;98913.78;;;8.51;100.00
3434;BME280;1730;41.932;25.548;2023-11-19T07:40:08;98948.84;;;8.59;100.00
3434;BME280;1730;41.932;25.548;2023-11-19T07:42:34;98777.03;;;7.68;100.00
3434;BME280;1730;41.932;25.548;2023-11-19T07:45:00;98946.16;;;8.59;100.00
3434;BME280;1730;41.932;25.548;2023-11-19T07:47:25;98875.03;;;8.36;100.00
3434;BME280;1730;41.932;25.548;2023-11-19T07:49:51;98935.88;;;8.73;100.00
3434;BME280;1730;41.932;25.548;2023-11-19T07:52:16;98947.81;;;8.60;100.00
3434;BME280;1730;41.932;25.548;2023-11-19T07:54:42;98948.06;;;8.67;100.00
3434;BME280;1730;41.932;25.548;2023-11-19T07:57:07;98975.50;;;8.88;100.00
3434;BME280;1730;41.932;25.548;2023-11-19T07:59:33;99000.75;;;8.78;100.00
3434;BME280;1730;41.932;25.548;2023-11-19T08:01:59;98766.50;;;7.84;100.00
3434;BME280;1730;41.932;25.548;2023-11-19T08:04:24;98963.50;;;8.83;100.00
3434;BME280;1730;41.932;25.548;2023-11-19T08:06:51;98969.53;;;9.12;100.00
3434;BME280;1730;41.932;25.548;2023-11-19T08:11:48;98983.06;;;9.20;100.00
3434;BME280;1730;41.932;25.548;2023-11-19T08:14:15;98807.75;;;8.10;100.00
3434;BME280;1730;41.932;25.548;2023-11-19T08:16:40;98970.41;;;9.13;100.00
3434;BME280;1730;41.932;25.548;2023-11-19T08:19:06;98852.56;;;8.28;100.00
3434;BME280;1730;41.932;25.548;2023-11-19T08:21:32;98802.47;;;7.91;100.00
3434;BME280;1730;41.932;25.548;2023-11-19T08:23:58;98684.38;;;7.29;100.00
3434;BME280;1730;41.932;25.548;2023-11-19T08:26:24;98989.28;;;9.21;100.00
3434;BME280;1730;41.932;25.548;2023-11-19T08:28:51;98674.44;;;7.39;100.00
3434;BME280;1730;41.932;25.548;2023-11-19T08:31:18;98824.72;;;8.29;100.00
3434;BME280;1730;41.932;25.548;2023-11-19T08:33:44;98995.75;;;9.28;100.00
3434;BME280;1730;41.932;25.548;2023-11-19T08:36:15;98748.50;;;7.94;100.00
3434;BME280;1730;41.932;25.548;2023-11-19T08:38:41;98575.87;;;6.78;100.00
3434;BME280;1730;41.932;25.548;2023-11-19T08:41:07;98648.84;;;7.27;100.00
3434;BME280;1730;41.932;25.548;2023-11-19T08:43:32;98743.50;;;7.99;100.00
3434;BME280;1730;41.932;25.548;2023-11-19T08:45:58;98878.97;;;8.77;100.00
3434;BME280;1730;41.932;25.548;2023-11-19T08:48:24;98650.03;;;7.77;100.00
3434;BME280;1730;41.932;25.548;2023-11-19T08:50:51;99001.38;;;10.04;100.00
3434;BME280;1730;41.932;25.548;2023-11-19T08:53:16;99014.25;;;9.92;100.00
3434;BME280;1730;41.932;25.548;2023-11-19T08:55:42;98534.06;;;7.12;100.00
3434;BME280;1730;41.932;25.548;2023-11-19T08:58:07;98740.31;;;8.49;100.00
3434;BME280;1730;41.932;25.548;2023-11-19T09:00:33;98654.66;;;7.85;100.00
3434;BME280;1730;41.932;25.548;2023-11-19T09:02:59;98320.22;;;5.92;100.00
3434;BME280;1730;41.932;25.548;2023-11-19T09:05:24;98553.19;;;7.00;100.00
3434;BME280;1730;41.932;25.548;2023-11-19T09:07:50;99028.31;;;10.04;100.00
3434;BME280;1730;41.932;25.548;2023-11-19T09:10:15;99017.50;;;9.95;100.00
3434;BME280;1730;41.932;25.548;2023-11-19T09:12:41;98726.13;;;8.39;100.00
3434;BME280;1730;41.932;25.548;2023-11-19T09:15:07;99025.34;;;9.89;100.00
3434;BME280;1730;41.932;25.548;2023-11-19T09:17:33;98772.59;;;8.75;100.00
3434;BME280;1730;41.932;25.548;2023-11-19T09:19:58;98881.47;;;9.66;100.00
3434;BME280;1730;41.932;25.548;2023-11-19T09:22:24;98985.41;;;10.10;100.00
3434;BME280;1730;41.932;25.548;2023-11-19T09:24:50;98589.94;;;7.52;100.00
3434;BME280;1730;41.932;25.548;2023-11-19T09:27:15;99014.78;;;10.47;100.00
3434;BME280;1730;41.932;25.548;2023-11-19T09:29:41;99006.94;;;10.28;100.00
3434;BME280;1730;41.932;25.548;2023-11-19T09:32:08;99024.38;;;10.16;100.00
3434;BME280;1730;41.932;25.548;2023-11-19T09:34:34;98710.31;;;8.36;100.00
3434;BME280;1730;41.932;25.548;2023-11-19T09:36:59;98876.53;;;9.27;100.00
3434;BME280;1730;41.932;25.548;2023-11-19T09:39:25;98966.34;;;10.21;100.00
3434;BME280;1730;41.932;25.548;2023-11-19T09:41:51;98614.53;;;7.65;100.00
3434;BME280;1730;41.932;25.548;2023-11-19T09:44:19;98512.00;;;7.36;100.00
3434;BME280;1730;41.932;25.548;2023-11-19T09:46:49;98662.34;;;8.41;100.00
3434;BME280;1730;41.932;25.548;2023-11-19T09:49:18;98994.56;;;10.43;100.00
3434;BME280;1730;41.932;25.548;2023-11-19T09:51:46;98999.59;;;10.38;100.00
3434;BME280;1730;41.932;25.548;2023-11-19T09:54:12;98899.50;;;9.99;100.00
3434;BME280;1730;41.932;25.548;2023-11-19T09:56:38;99001.59;;;10.78;100.00
3434;BME280;1730;41.932;25.548;2023-11-19T09:59:05;99000.91;;;10.76;100.00
3434;BME280;1730;41.932;25.548;2023-11-19T10:01:30;99029.75;;;10.42;100.00
3434;BME280;1730;41.932;25.548;2023-11-19T10:03:57;99005.41;;;10.59;100.00
3434;BME280;1730;41.932;25.548;2023-11-19T10:06:24;98957.91;;;9.99;100.00
3434;BME280;1730;41.932;25.548;2023-11-19T10:08:52;99033.25;;;10.34;100.00
3434;BME280;1730;41.932;25.548;2023-11-19T10:11:17;99023.31;;;10.34;100.00
3434;BME280;1730;41.932;25.548;2023-11-19T10:13:43;98889.78;;;9.72;100.00
3434;BME280;1730;41.932;25.548;2023-11-19T10:16:12;98956.44;;;10.04;100.00
3434;BME280;1730;41.932;25.548;2023-11-19T10:18:44;98856.06;;;9.60;100.00
3434;BME280;1730;41.932;25.548;2023-11-19T10:21:14;99036.78;;;10.68;100.00
3434;BME280;1730;41.932;25.548;2023-11-19T10:23:52;98570.88;;;7.99;100.00
3434;BME280;1730;41.932;25.548;2023-11-19T10:26:20;99020.19;;;10.47;100.00
3434;BME280;1730;41.932;25.548;2023-11-19T10:28:47;99024.75;;;10.55;100.00
3434;BME280;1730;41.932;25.548;2023-11-19T10:31:13;99021.34;;;10.45;100.00
3434;BME280;1730;41.932;25.548;2023-11-19T10:33:39;98909.44;;;9.99;100.00
3434;BME280;1730;41.932;25.548;2023-11-19T10:36:05;99018.16;;;10.91;100.00
3434;BME280;1730;41.932;25.548;2023-11-19T10:38:31;98916.38;;;10.09;100.00
3434;BME280;1730;41.932;25.548;2023-11-19T10:40:56;98959.69;;;10.42;100.00
3434;BME280;1730;41.932;25.548;2023-11-19T10:43:23;99017.87;;;10.60;100.00
3434;BME280;1730;41.932;25.548;2023-11-19T10:45:49;99019.44;;;10.71;100.00
3434;BME280;1730;41.932;25.548;2023-11-19T10:48:15;98997.84;;;10.63;100.00
3434;BME280;1730;41.932;25.548;2023-11-19T10:50:43;99021.69;;;10.83;100.00
3434;BME280;1730;41.932;25.548;2023-11-19T10:53:11;99024.22;;;10.85;100.00
3434;BME280;1730;41.932;25.548;2023-11-19T10:55:39;99025.47;;;11.15;100.00
3434;BME280;1730;41.932;25.548;2023-11-19T10:58:06;99019.41;;;11.05;100.00
3434;BME280;1730;41.932;25.548;2023-11-19T11:00:45;99024.34;;;10.75;100.00
3434;BME280;1730;41.932;25.548;2023-11-19T11:03:20;99015.97;;;10.95;100.00
3434;BME280;1730;41.932;25.548;2023-11-19T11:05:53;99002.59;;;10.77;100.00
3434;BME280;1730;41.932;25.548;2023-11-19T11:08:19;98998.56;;;10.73;100.00
3434;BME280;1730;41.932;25.548;2023-11-19T11:10:51;99008.00;;;10.77;100.00
3434;BME280;1730;41.932;25.548;2023-11-19T11:13:19;99000.38;;;11.14;100.00
3434;BME280;1730;41.932;25.548;2023-11-19T11:15:45;99004.28;;;11.36;100.00
3434;BME280;1730;41.932;25.548;2023-11-19T11:18:13;99016.56;;;11.30;100.00
3434;BME280;1730;41.932;25.548;2023-11-19T11:20:39;98996.81;;;11.22;100.00
3434;BME280;1730;41.932;25.548;2023-11-19T11:34:45;98994.47;;;11.27;98.94
3434;BME280;1730;41.932;25.548;2023-11-19T11:37:23;99004.09;;;11.29;98.44
3434;BME280;1730;41.932;25.548;2023-11-19T11:39:52;98958.50;;;11.10;98.10
3434;BME280;1730;41.932;25.548;2023-11-19T11:45:06;99005.44;;;11.42;97.32
3434;BME280;1730;41.932;25.548;2023-11-19T11:58:13;98993.63;;;11.35;94.83
3434;BME280;1730;41.932;25.548;2023-11-19T12:00:40;98991.78;;;11.51;94.81
3434;BME280;1730;41.932;25.548;2023-11-19T12:03:08;99013.72;;;11.40;94.65
3434;BME280;1730;41.932;25.548;2023-11-19T12:05:45;98977.78;;;11.56;94.37
3434;BME280;1730;41.932;25.548;2023-11-19T12:08:12;98830.38;;;10.66;93.49
3434;BME280;1730;41.932;25.548;2023-11-19T12:10:46;98975.75;;;11.25;93.84
3434;BME280;1730;41.932;25.548;2023-11-19T12:13:17;98971.19;;;11.34;94.89
3434;BME280;1730;41.932;25.548;2023-11-19T12:18:28;98977.75;;;11.15;95.54
3434;BME280;1730;41.932;25.548;2023-11-19T12:20:55;98956.84;;;11.17;96.48
3434;BME280;1730;41.932;25.548;2023-11-19T12:23:22;98905.06;;;11.14;94.89
3434;BME280;1730;41.932;25.548;2023-11-19T12:25:47;98907.25;;;11.43;95.06
3434;BME280;1730;41.932;25.548;2023-11-19T12:28:14;98894.78;;;11.17;94.15
3434;BME280;1730;41.932;25.548;2023-11-19T12:30:43;98941.66;;;11.16;94.82
3434;BME280;1730;41.932;25.548;2023-11-19T12:33:10;98916.38;;;11.25;95.20
3434;BME280;1730;41.932;25.548;2023-11-19T12:35:43;98911.97;;;11.16;94.69
3434;BME280;1730;41.932;25.548;2023-11-19T12:38:19;98924.63;;;11.16;95.07
3434;BME280;1730;41.932;25.548;2023-11-19T12:40:46;98658.59;;;9.69;93.56
3434;BME280;1730;41.932;25.548;2023-11-19T12:43:21;98940.47;;;11.19;93.31
3434;BME280;1730;41.932;25.548;2023-11-19T12:45:50;98919.56;;;11.45;94.00
3434;BME280;1730;41.932;25.548;2023-11-19T12:48:15;98933.06;;;11.37;93.97
3434;BME280;1730;41.932;25.548;2023-11-19T12:51:10;98913.66;;;11.17;93.49
3434;BME280;1730;41.932;25.548;2023-11-19T12:53:48;98833.41;;;10.87;94.53
3434;BME280;1730;41.932;25.548;2023-11-19T12:56:15;98929.53;;;11.53;93.90
3434;BME280;1730;41.932;25.548;2023-11-19T12:58:41;98896.13;;;11.05;92.93
3434;BME280;1730;41.932;25.548;2023-11-19T13:01:08;98858.03;;;11.00;93.03
3434;BME280;1730;41.932;25.548;2023-11-19T13:03:38;98929.34;;;11.30;92.93
3434;BME280;1730;41.932;25.548;2023-11-19T13:06:05;98929.00;;;11.25;94.13
3434;BME280;1730;41.932;25.548;2023-11-19T13:11:08;98926.81;;;10.96;93.49
3434;BME280;1730;41.932;25.548;2023-11-19T13:14:03;98895.28;;;11.05;93.66
3434;BME280;1730;41.932;25.548;2023-11-19T13:16:36;98848.56;;;11.12;94.06
3434;BME280;1730;41.932;25.548;2023-11-19T13:19:04;98909.28;;;11.24;93.74
3434;BME280;1730;41.932;25.548;2023-11-19T13:21:32;98912.47;;;11.28;93.91
3434;BME280;1730;41.932;25.548;2023-11-19T13:23:57;98814.19;;;10.66;94.09
3434;BME280;1730;41.932;25.548;2023-11-19T13:26:23;98879.09;;;10.97;93.63
3434;BME280;1730;41.932;25.548;2023-11-19T13:28:49;98914.31;;;11.11;92.62
3434;BME280;1730;41.932;25.548;2023-11-19T13:31:15;98919.56;;;10.97;92.40
3434;BME280;1730;41.932;25.548;2023-11-19T13:33:41;98923.78;;;11.07;93.23
3434;BME280;1730;41.932;25.548;2023-11-19T13:36:07;98914.31;;;11.03;93.56
3434;BME280;1730;41.932;25.548;2023-11-19T13:38:36;98850.06;;;10.66;94.05
3434;BME280;1730;41.932;25.548;2023-11-19T13:41:04;98763.16;;;10.06;95.01
3434;BME280;1730;41.932;25.548;2023-11-19T13:43:31;98878.41;;;10.78;94.64